Chicago O'Hare, IL (60666)

1:39 PM CDT on September 29, 2016 (GMT -0500)
Rosemont | | Change Station
Active Advisory: Lakeshore Flood Advisory

Elev 633 ft 41.99 °N, 87.87 °W | Updated 13 minutes ago

Overcast
Overcast
63.4 °F
Feels Like 63.4 °F
N
6.0
Wind Variable Wind from NNE
Gusts 17.0 mph

Today
High -- | Low -- °F
--% Chance of Precip.
Yesterday
High -- | Low -- °F
Precip. -- in
Pressure 30.18 in
Visibility 10.0 miles
Clouds Mostly Cloudy 1400 ft
Mostly Cloudy 1900 ft
Overcast 2900 ft
Dew Point 61 °F
Humidity 90%
Rainfall 0.00 in
Snow Depth Not available.
6:46 AM 6:35 PM
Waning Crescent, 1% visible
SPECI KORD 291831Z 03014G22KT 10SM BKN014 BKN019 OVC029 18/16 A3018 RMK AO2 RAE19 P0000 T01780156
Pressure 30.18 in
Visibility 10.0 miles
Clouds Mostly Cloudy 1400 ft
Mostly Cloudy 1900 ft
Overcast 2900 ft
Dew Point 61 °F
Humidity 90%
Rainfall 0.00 in
Snow Depth Not available.
6:46 AM 6:35 PM
Waning Crescent, 1% visible
SPECI KORD 291831Z 03014G22KT 10SM BKN014 BKN019 OVC029 18/16 A3018 RMK AO2 RAE19 P0000 T01780156

10-Day Weather Forecast

Almanac

Astronomy

Sep. 29, 2016 Rise Set
Actual Time
Civil Twilight
Nautical Twilight
Astronomical Twilight
Moon
Length of Visible Light
Length of Day
Tomorrow will be .
, % of the Moon is Illuminated

Today's Extremes

State Highs State Lows

Community

WunderPhotos

Upload Photos

1,942,545 photos uploaded!

WunderBlog® & News

Nearby

Air Quality

  Air Quality AQ Index Pollutant
Not available.

Snow Depth

Station Depth Elevation

Earthquake Activity

City Distance Mag. Time & Date
Minimum magnitude displayed is 2.5.

Coastal Water Temperatures

Place Temperature

Stations

Nearby Weather Stations

Station Location Temp. Windchill Dew Point Humidity Wind Precip. Elev Updated Type
                   

Watches & Warnings

Lakeshore Flood Advisory
Issued: 11:08 AM CDT Sep. 29, 2016 – National Weather Service

... Lakeshore Flood Advisory in effect until noon CDT Friday...

The National Weather Service in Chicago has issued a Lakeshore
Flood Advisory... which is in effect until noon CDT Friday.

* Lake Shore flooding... along the northeast Illinois and parts of
the Northwest Indiana shores.

* Timing... through Friday morning.

* Impacts... minor flooding along immediate Lakeshore areas
including possibly parts of the city of Chicago bike path.

Precautionary/preparedness actions...

A Lakeshore Flood Advisory indicates that onshore winds will
generate flooding of low areas along the Lakeshore.



Mtf